createdAt,value
2023-06-23T00:00:01.890Z,16.18
2023-06-23T00:01:02.474Z,16.20
2023-06-23T00:02:01.810Z,16.20
2023-06-23T00:03:01.895Z,16.20
2023-06-23T00:04:01.851Z,16.18
2023-06-23T00:05:02.092Z,16.18
2023-06-23T00:06:01.755Z,16.18
2023-06-23T00:07:01.934Z,16.18
2023-06-23T00:08:01.892Z,16.18
2023-06-23T00:09:01.978Z,16.18
2023-06-23T00:10:01.994Z,16.18
2023-06-23T00:11:01.858Z,16.18
2023-06-23T00:12:01.956Z,16.15
2023-06-23T00:13:01.951Z,16.15
2023-06-23T00:14:01.696Z,16.15
2023-06-23T00:15:01.714Z,16.15
2023-06-23T00:16:01.961Z,16.12
2023-06-23T00:17:01.614Z,16.11
2023-06-23T00:18:01.769Z,16.09
2023-06-23T00:19:01.650Z,16.12
2023-06-23T00:20:01.719Z,16.14
2023-06-23T00:21:01.858Z,16.15
2023-06-23T00:22:01.815Z,16.15
2023-06-23T00:23:01.872Z,16.16
2023-06-23T00:24:01.940Z,16.22
2023-06-23T00:25:01.713Z,16.23
2023-06-23T00:26:03.994Z,16.22
2023-06-23T00:27:01.613Z,16.23
2023-06-23T00:28:01.924Z,16.22
2023-06-23T00:29:01.805Z,16.20
2023-06-23T00:30:02.058Z,16.20
2023-06-23T00:31:01.803Z,16.20
2023-06-23T00:32:01.752Z,16.18
2023-06-23T00:33:01.993Z,16.16
2023-06-23T00:34:01.868Z,16.18
2023-06-23T00:35:01.777Z,16.18
2023-06-23T00:36:02.034Z,16.20
2023-06-23T00:37:01.776Z,16.22
2023-06-23T00:38:01.556Z,16.23
2023-06-23T00:39:01.571Z,16.25
2023-06-23T00:40:01.389Z,16.26
2023-06-23T00:41:01.588Z,16.26
2023-06-23T00:42:02.045Z,16.26
2023-06-23T00:43:01.693Z,16.27
2023-06-23T00:44:01.304Z,16.27
2023-06-23T00:45:01.322Z,16.30
2023-06-23T00:46:01.333Z,16.30
2023-06-23T00:47:01.564Z,16.27
2023-06-23T00:48:01.327Z,16.26
2023-06-23T00:49:01.238Z,16.27
2023-06-23T00:50:01.262Z,16.30
2023-06-23T00:51:01.462Z,16.26
2023-06-23T00:52:01.573Z,16.27
2023-06-23T00:53:01.261Z,16.27
2023-06-23T00:54:01.295Z,16.31
2023-06-23T00:55:01.219Z,16.31
2023-06-23T00:56:01.331Z,16.31
2023-06-23T00:57:01.186Z,16.33
2023-06-23T00:58:01.221Z,16.31
2023-06-23T00:59:01.171Z,16.31
2023-06-23T01:00:01.159Z,16.33
2023-06-23T01:01:01.125Z,16.34
2023-06-23T01:02:01.237Z,16.31
2023-06-23T01:03:01.684Z,16.30
2023-06-23T01:04:01.181Z,16.27
2023-06-23T01:05:01.084Z,16.30
2023-06-23T01:06:01.116Z,16.27
2023-06-23T01:07:01.102Z,16.30
2023-06-23T01:08:01.079Z,16.30
2023-06-23T01:09:01.193Z,16.31
2023-06-23T01:10:01.281Z,16.33
2023-06-23T01:11:01.108Z,16.34
2023-06-23T01:12:01.264Z,16.37
2023-06-23T01:13:01.176Z,16.34
2023-06-23T01:14:01.297Z,16.35
2023-06-23T01:15:01.408Z,16.35
2023-06-23T01:16:00.965Z,16.35
2023-06-23T01:17:01.090Z,16.37
2023-06-23T01:18:01.080Z,16.38
2023-06-23T01:19:01.724Z,16.38
2023-06-23T01:20:01.075Z,16.35
2023-06-23T01:21:00.975Z,16.34
2023-06-23T01:22:01.032Z,16.35
2023-06-23T01:23:00.923Z,16.34
2023-06-23T01:24:01.702Z,16.34
2023-06-23T01:25:01.038Z,16.33
2023-06-23T01:26:00.915Z,16.31
2023-06-23T01:27:00.855Z,16.33
2023-06-23T01:28:00.934Z,16.30
2023-06-23T01:29:00.949Z,16.30
2023-06-23T01:30:00.928Z,16.26
2023-06-23T01:31:01.722Z,16.27
2023-06-23T01:32:00.975Z,16.30
2023-06-23T01:33:01.138Z,16.30
2023-06-23T01:34:00.907Z,16.30
2023-06-23T01:35:00.842Z,16.31
2023-06-23T01:36:00.824Z,16.30
2023-06-23T01:37:00.943Z,16.27
2023-06-23T01:38:00.818Z,16.30
2023-06-23T01:39:00.880Z,16.25
2023-06-23T01:40:00.943Z,16.20
2023-06-23T01:41:00.873Z,16.18
2023-06-23T01:42:00.815Z,16.18
2023-06-23T01:43:00.938Z,16.15
2023-06-23T01:44:01.002Z,16.16
2023-06-23T01:45:00.900Z,16.15
2023-06-23T01:46:01.003Z,16.15
2023-06-23T01:47:00.850Z,16.14
2023-06-23T01:48:01.237Z,16.15
2023-06-23T01:49:00.765Z,16.14
2023-06-23T01:50:01.291Z,16.12
2023-06-23T01:51:00.754Z,16.09
2023-06-23T01:52:00.661Z,16.07
2023-06-23T01:53:00.821Z,16.09
2023-06-23T01:54:00.660Z,16.11
2023-06-23T01:55:00.783Z,16.11
2023-06-23T01:56:00.750Z,16.11
2023-06-23T01:57:00.566Z,16.09
2023-06-23T01:58:00.810Z,16.09
2023-06-23T01:59:00.584Z,16.09
2023-06-23T02:00:00.854Z,16.09
2023-06-23T02:01:00.749Z,16.07
2023-06-23T02:02:00.751Z,16.06
2023-06-23T02:03:01.028Z,16.07
2023-06-23T02:04:00.969Z,16.06
2023-06-23T02:05:00.763Z,16.01
2023-06-23T02:06:00.597Z,16.01
2023-06-23T02:07:00.574Z,16.01
2023-06-23T02:08:00.535Z,16.00
2023-06-23T02:09:00.567Z,16.03
2023-06-23T02:10:00.523Z,16.01
2023-06-23T02:11:00.960Z,16.03
2023-06-23T02:12:00.522Z,16.03
2023-06-23T02:13:00.414Z,16.01
2023-06-23T02:14:00.416Z,16.03
2023-06-23T02:15:00.583Z,16.04
2023-06-23T02:16:00.613Z,16.06
2023-06-23T02:17:00.791Z,16.04
2023-06-23T02:18:00.652Z,16.04
2023-06-23T02:19:00.342Z,16.04
2023-06-23T02:20:00.395Z,16.04
2023-06-23T02:21:00.369Z,16.06
2023-06-23T02:22:00.334Z,16.06
2023-06-23T02:23:00.454Z,16.07
2023-06-23T02:24:00.636Z,16.06
2023-06-23T02:25:00.314Z,16.07
2023-06-23T02:26:00.284Z,16.09
2023-06-23T02:27:00.294Z,16.09
2023-06-23T02:28:00.344Z,16.09
2023-06-23T02:29:00.271Z,16.06
2023-06-23T02:30:00.444Z,16.03
2023-06-23T02:31:00.302Z,16.03
2023-06-23T02:32:00.297Z,16.01
2023-06-23T02:33:00.319Z,16.03
2023-06-23T02:34:00.391Z,16.03
2023-06-23T02:35:00.318Z,16.04
2023-06-23T02:36:00.418Z,16.06
2023-06-23T02:37:00.272Z,16.07
2023-06-23T02:38:00.168Z,16.07
2023-06-23T02:39:00.202Z,16.07
2023-06-23T02:40:00.298Z,16.09
2023-06-23T02:41:00.216Z,16.07
2023-06-23T02:42:00.457Z,16.04
2023-06-23T02:43:00.153Z,16.03
2023-06-23T02:44:00.131Z,16.03
2023-06-23T02:45:00.312Z,16.04
2023-06-23T02:46:00.263Z,16.06
2023-06-23T02:47:00.068Z,16.06
2023-06-23T02:48:00.102Z,16.07
2023-06-23T02:49:00.168Z,16.07
2023-06-23T02:50:00.202Z,16.07
2023-06-23T02:51:00.147Z,16.06
2023-06-23T02:52:00.211Z,16.03
2023-06-23T02:53:00.224Z,16.00
2023-06-23T02:54:02.321Z,16.00
2023-06-23T02:55:00.315Z,16.00
2023-06-23T02:56:00.232Z,16.00
2023-06-23T02:56:59.957Z,16.01
2023-06-23T02:57:59.972Z,16.04
2023-06-23T02:58:59.971Z,16.03
2023-06-23T02:59:59.924Z,16.04
2023-06-23T03:00:59.970Z,16.06
2023-06-23T03:01:59.942Z,16.04
2023-06-23T03:03:00.063Z,16.03
2023-06-23T03:04:00.175Z,16.04
2023-06-23T03:04:59.891Z,16.03
2023-06-23T03:05:59.924Z,16.03
2023-06-23T03:06:59.918Z,16.03
2023-06-23T03:07:59.841Z,16.06
2023-06-23T03:08:59.873Z,16.04
2023-06-23T03:09:59.943Z,16.03
2023-06-23T03:10:59.926Z,16.07
2023-06-23T03:12:00.002Z,16.06
2023-06-23T03:12:59.977Z,16.07
2023-06-23T03:13:59.986Z,16.09
2023-06-23T03:14:59.851Z,16.11
2023-06-23T03:15:59.982Z,16.12
2023-06-23T03:16:59.743Z,16.14
2023-06-23T03:17:59.750Z,16.12
2023-06-23T03:18:59.760Z,16.12
2023-06-23T03:19:59.752Z,16.12
2023-06-23T03:21:00.016Z,16.11
2023-06-23T03:21:59.870Z,16.12
2023-06-23T03:23:00.323Z,16.12
2023-06-23T03:23:59.808Z,16.14
2023-06-23T03:24:59.920Z,16.14
2023-06-23T03:25:59.972Z,16.14
2023-06-23T03:27:00.047Z,16.16
2023-06-23T03:27:59.929Z,16.18
2023-06-23T03:28:59.963Z,16.20
2023-06-23T03:29:59.692Z,16.23
2023-06-23T03:30:59.822Z,16.26
2023-06-23T03:31:59.855Z,16.25
2023-06-23T03:32:59.641Z,16.26
2023-06-23T03:33:59.765Z,16.26
2023-06-23T03:34:59.648Z,16.26
2023-06-23T03:35:59.604Z,16.26
2023-06-23T03:36:59.723Z,16.26
2023-06-23T03:37:59.529Z,16.26
2023-06-23T03:38:59.554Z,16.25
2023-06-23T03:39:59.941Z,16.25
2023-06-23T03:40:59.912Z,16.26
2023-06-23T03:41:59.524Z,16.26
2023-06-23T03:42:59.483Z,16.30
2023-06-23T03:43:59.511Z,16.27
2023-06-23T03:44:59.501Z,16.26
2023-06-23T03:45:59.587Z,16.27
2023-06-23T03:46:59.492Z,16.30
2023-06-23T03:47:59.547Z,16.26
2023-06-23T03:48:59.468Z,16.30
2023-06-23T03:49:59.423Z,16.27
2023-06-23T03:50:59.449Z,16.30
2023-06-23T03:51:59.646Z,16.33
2023-06-23T03:52:59.394Z,16.31
2023-06-23T03:53:59.428Z,16.33
2023-06-23T03:54:59.365Z,16.33
2023-06-23T03:55:59.449Z,16.33
2023-06-23T03:56:59.362Z,16.34
2023-06-23T03:57:59.352Z,16.33
2023-06-23T03:58:59.389Z,16.31
2023-06-23T03:59:59.545Z,16.31
2023-06-23T04:00:59.701Z,16.30
2023-06-23T04:01:59.312Z,16.30
2023-06-23T04:02:59.290Z,16.30
2023-06-23T04:03:59.299Z,16.31
2023-06-23T04:04:59.242Z,16.31
2023-06-23T04:05:59.270Z,16.30
2023-06-23T04:06:59.402Z,16.27
2023-06-23T04:07:59.242Z,16.26
2023-06-23T04:08:59.851Z,16.25
2023-06-23T04:09:59.838Z,16.25
2023-06-23T04:10:59.418Z,16.23
2023-06-23T04:11:59.249Z,16.22
2023-06-23T04:12:59.172Z,16.20
2023-06-23T04:13:59.215Z,16.20
2023-06-23T04:14:59.295Z,16.20
2023-06-23T04:15:59.155Z,16.18
2023-06-23T04:16:59.117Z,16.18
2023-06-23T04:17:59.243Z,16.16
2023-06-23T04:18:59.283Z,16.15
2023-06-23T04:19:59.369Z,16.16
2023-06-23T04:20:59.138Z,16.15
2023-06-23T04:21:59.191Z,16.16
2023-06-23T04:22:59.081Z,16.16
2023-06-23T04:23:59.103Z,16.18
2023-06-23T04:24:59.217Z,16.18
2023-06-23T04:25:59.106Z,16.20
2023-06-23T04:26:59.025Z,16.22
2023-06-23T04:27:59.006Z,16.23
2023-06-23T04:28:59.405Z,16.23
2023-06-23T04:29:59.030Z,16.25
2023-06-23T04:30:59.393Z,16.26
2023-06-23T04:31:59.174Z,16.27
2023-06-23T04:32:59.292Z,16.31
2023-06-23T04:33:59.041Z,16.31
2023-06-23T04:34:59.014Z,16.31
2023-06-23T04:35:59.250Z,16.33
2023-06-23T04:36:58.960Z,16.34
2023-06-23T04:37:58.944Z,16.31
2023-06-23T04:38:58.905Z,16.30
2023-06-23T04:39:58.997Z,16.26
2023-06-23T04:40:59.117Z,16.25
2023-06-23T04:41:59.153Z,16.25
2023-06-23T04:42:58.910Z,16.25
2023-06-23T04:43:59.295Z,16.26
2023-06-23T04:44:59.245Z,16.30
2023-06-23T04:45:59.551Z,16.31
2023-06-23T04:46:58.920Z,16.33
2023-06-23T04:47:59.216Z,16.34
2023-06-23T04:48:59.150Z,16.34
2023-06-23T04:49:59.155Z,16.37
2023-06-23T04:50:58.986Z,16.38
2023-06-23T04:51:58.792Z,16.40
2023-06-23T04:52:58.993Z,16.40
2023-06-23T04:53:58.784Z,16.41
2023-06-23T04:54:58.764Z,16.42
2023-06-23T04:55:58.765Z,16.45
2023-06-23T04:56:58.908Z,16.45
2023-06-23T04:57:58.813Z,16.45
2023-06-23T04:58:58.825Z,16.45
2023-06-23T04:59:58.977Z,16.48
2023-06-23T05:00:58.837Z,16.48
2023-06-23T05:01:58.713Z,16.49
2023-06-23T05:02:59.103Z,16.50
2023-06-23T05:03:58.742Z,16.49
2023-06-23T05:04:58.788Z,16.50
2023-06-23T05:05:58.771Z,16.52
2023-06-23T05:06:58.849Z,16.55
2023-06-23T05:07:58.814Z,16.56
2023-06-23T05:08:59.158Z,16.58
2023-06-23T05:09:58.647Z,16.59
2023-06-23T05:10:59.551Z,16.63
2023-06-23T05:11:58.616Z,16.65
2023-06-23T05:12:58.592Z,16.68
2023-06-23T05:13:58.627Z,16.70
2023-06-23T05:14:58.994Z,16.70
2023-06-23T05:15:58.550Z,16.71
2023-06-23T05:16:58.552Z,16.70
2023-06-23T05:17:58.634Z,16.70
2023-06-23T05:18:58.540Z,16.71
2023-06-23T05:19:58.555Z,16.74
2023-06-23T05:20:58.531Z,16.74
2023-06-23T05:21:58.637Z,16.77
2023-06-23T05:22:58.764Z,16.77
2023-06-23T05:23:59.639Z,16.75
2023-06-23T05:24:58.478Z,16.74
2023-06-23T05:25:58.498Z,16.73
2023-06-23T05:26:59.606Z,16.70
2023-06-23T05:27:58.626Z,16.67
2023-06-23T05:28:58.419Z,16.65
2023-06-23T05:29:58.522Z,16.65
2023-06-23T05:30:58.477Z,16.68
2023-06-23T05:31:58.588Z,16.68
2023-06-23T05:32:58.656Z,16.68
2023-06-23T05:33:58.641Z,16.65
2023-06-23T05:34:58.702Z,16.65
2023-06-23T05:35:58.455Z,16.67
2023-06-23T05:36:58.410Z,16.70
2023-06-23T05:37:58.663Z,16.73
2023-06-23T05:38:58.750Z,16.77
2023-06-23T05:39:58.612Z,16.80
2023-06-23T05:40:58.297Z,16.83
2023-06-23T05:41:58.327Z,16.89
2023-06-23T05:42:58.347Z,16.92
2023-06-23T05:43:58.464Z,16.98
2023-06-23T05:44:58.446Z,17.03
2023-06-23T05:45:58.264Z,17.06
2023-06-23T05:46:58.272Z,17.07
2023-06-23T05:47:58.726Z,17.07
2023-06-23T05:48:58.268Z,17.06
2023-06-23T05:49:58.284Z,16.99
2023-06-23T05:50:58.243Z,16.93
2023-06-23T05:51:58.455Z,16.90
2023-06-23T05:52:58.196Z,16.90
2023-06-23T05:53:58.235Z,16.89
2023-06-23T05:54:58.182Z,16.89
2023-06-23T05:55:58.305Z,16.89
2023-06-23T05:56:58.172Z,16.90
2023-06-23T05:57:58.550Z,16.93
2023-06-23T05:58:58.127Z,16.98
2023-06-23T05:59:58.104Z,17.00
2023-06-23T06:00:58.526Z,17.06
2023-06-23T06:01:58.099Z,17.13
2023-06-23T06:02:58.149Z,17.18
2023-06-23T06:03:58.256Z,17.18
2023-06-23T06:04:58.047Z,17.23
2023-06-23T06:05:58.204Z,17.25
2023-06-23T06:06:58.243Z,17.28
2023-06-23T06:07:58.247Z,17.30
2023-06-23T06:08:58.117Z,17.35
2023-06-23T06:09:58.021Z,17.41
2023-06-23T06:10:58.226Z,17.44
2023-06-23T06:11:58.285Z,17.47
2023-06-23T06:12:58.012Z,17.50
2023-06-23T06:13:58.201Z,17.53
2023-06-23T06:14:58.113Z,17.55
2023-06-23T06:15:58.015Z,17.54
2023-06-23T06:16:57.964Z,17.51
2023-06-23T06:17:58.010Z,17.48
2023-06-23T06:18:57.994Z,17.50
2023-06-23T06:19:57.984Z,17.48
2023-06-23T06:20:57.927Z,17.50
2023-06-23T06:21:58.030Z,17.53
2023-06-23T06:23:06.880Z,17.51
2023-06-23T06:23:57.914Z,17.54
2023-06-23T06:24:57.996Z,17.57
2023-06-23T06:25:57.879Z,17.64
2023-06-23T06:26:57.953Z,17.70
2023-06-23T06:27:58.153Z,17.73
2023-06-23T06:28:57.991Z,17.73
2023-06-23T06:29:58.433Z,17.76
2023-06-23T06:30:57.823Z,17.81
2023-06-23T06:31:57.799Z,17.87
2023-06-23T06:32:57.984Z,17.91
2023-06-23T06:33:58.040Z,17.92
2023-06-23T06:34:57.948Z,17.92
2023-06-23T06:35:57.788Z,17.94
2023-06-23T06:36:57.745Z,17.95
2023-06-23T06:37:57.731Z,17.99
2023-06-23T06:38:57.739Z,18.04
2023-06-23T06:39:57.863Z,18.10
2023-06-23T06:40:57.726Z,18.17
2023-06-23T06:41:57.748Z,18.21
2023-06-23T06:42:57.685Z,18.22
2023-06-23T06:43:57.670Z,18.22
2023-06-23T06:44:57.661Z,18.22
2023-06-23T06:45:57.875Z,18.22
2023-06-23T06:46:58.047Z,18.22
2023-06-23T06:47:57.727Z,18.21
2023-06-23T06:48:57.877Z,18.13
2023-06-23T06:49:57.632Z,18.04
2023-06-23T06:50:57.689Z,18.00
2023-06-23T06:51:57.679Z,17.88
2023-06-23T06:52:57.939Z,17.82
2023-06-23T06:53:57.608Z,17.81
2023-06-23T06:54:57.582Z,17.78
2023-06-23T06:55:58.027Z,17.81
2023-06-23T06:56:57.554Z,17.89
2023-06-23T06:57:57.529Z,17.97
2023-06-23T06:58:57.979Z,18.03
2023-06-23T06:59:57.800Z,18.12
2023-06-23T07:00:57.785Z,18.12
2023-06-23T07:01:57.644Z,18.17
2023-06-23T07:02:57.850Z,18.17
2023-06-23T07:03:57.791Z,18.15
2023-06-23T07:04:57.551Z,18.18
2023-06-23T07:05:57.765Z,18.21
2023-06-23T07:06:57.461Z,18.28
2023-06-23T07:07:57.479Z,18.27
2023-06-23T07:08:57.434Z,18.28
2023-06-23T07:09:57.432Z,18.33
2023-06-23T07:10:57.398Z,18.39
2023-06-23T07:11:57.626Z,18.33
2023-06-23T07:12:57.486Z,18.29
2023-06-23T07:13:57.491Z,18.33
2023-06-23T07:14:57.507Z,18.33
2023-06-23T07:15:57.430Z,18.37
2023-06-23T07:16:57.411Z,18.42
2023-06-23T07:17:57.416Z,18.46
2023-06-23T07:18:57.330Z,18.52
2023-06-23T07:19:57.336Z,18.55
2023-06-23T07:20:57.294Z,18.49
2023-06-23T07:21:57.283Z,18.44
2023-06-23T07:22:57.636Z,18.43
2023-06-23T07:23:57.396Z,18.43
2023-06-23T07:24:57.276Z,18.43
2023-06-23T07:25:57.254Z,18.42
2023-06-23T07:26:57.289Z,18.39
2023-06-23T07:27:57.672Z,18.37
2023-06-23T07:28:57.357Z,18.36
2023-06-23T07:29:57.368Z,18.28
2023-06-23T07:30:57.304Z,18.25
2023-06-23T07:31:57.311Z,18.22
2023-06-23T07:32:57.348Z,18.25
2023-06-23T07:33:57.186Z,18.31
2023-06-23T07:34:57.169Z,18.39
2023-06-23T07:35:57.250Z,18.46
2023-06-23T07:36:57.166Z,18.55
2023-06-23T07:37:57.158Z,18.64
2023-06-23T07:38:57.149Z,18.73
2023-06-23T07:39:57.132Z,18.80
2023-06-23T07:40:57.132Z,18.82
2023-06-23T07:41:57.130Z,18.86
2023-06-23T07:42:57.098Z,18.86
2023-06-23T07:43:57.102Z,18.86
2023-06-23T07:44:57.102Z,18.90
2023-06-23T07:45:57.378Z,18.92
2023-06-23T07:46:57.290Z,18.98
2023-06-23T07:47:57.552Z,19.02
2023-06-23T07:48:57.030Z,19.14
2023-06-23T07:49:57.042Z,19.24
2023-06-23T07:50:57.069Z,19.23
2023-06-23T07:51:56.995Z,19.18
2023-06-23T07:52:57.528Z,19.21
2023-06-23T07:54:06.904Z,19.28
2023-06-23T07:54:57.393Z,19.35
2023-06-23T07:55:57.139Z,19.50
2023-06-23T07:56:57.103Z,19.57
2023-06-23T07:57:57.160Z,19.60
2023-06-23T07:58:56.940Z,19.61
2023-06-23T07:59:56.985Z,19.72
2023-06-23T08:00:57.196Z,19.72
2023-06-23T08:01:57.083Z,19.48
2023-06-23T08:02:57.203Z,19.60
2023-06-23T08:03:57.564Z,19.87
2023-06-23T08:04:57.442Z,20.10
2023-06-23T08:05:56.947Z,20.21
2023-06-23T08:06:57.086Z,20.38
2023-06-23T08:07:56.963Z,20.56
2023-06-23T08:08:56.897Z,20.64
2023-06-23T08:09:57.076Z,20.69
2023-06-23T08:10:57.161Z,20.62
2023-06-23T08:11:56.821Z,20.71
2023-06-23T08:12:57.065Z,20.87
2023-06-23T08:13:57.088Z,21.11
2023-06-23T08:14:56.773Z,21.34
2023-06-23T08:15:56.908Z,21.54
2023-06-23T08:16:56.983Z,21.61
2023-06-23T08:17:56.914Z,21.78
2023-06-23T08:18:56.880Z,21.88
2023-06-23T08:19:57.051Z,21.95
2023-06-23T08:20:56.993Z,21.99
2023-06-23T08:21:58.067Z,21.88
2023-06-23T08:22:56.725Z,21.83
2023-06-23T08:23:56.894Z,21.94
2023-06-23T08:24:56.673Z,22.10
2023-06-23T08:25:56.980Z,22.14
2023-06-23T08:26:56.929Z,22.02
2023-06-23T08:27:57.517Z,21.76
2023-06-23T08:28:56.994Z,21.66
2023-06-23T08:29:56.870Z,21.59
2023-06-23T08:30:56.897Z,21.63
2023-06-23T08:31:56.696Z,21.64
2023-06-23T08:32:56.829Z,21.57
2023-06-23T08:33:56.609Z,21.53
2023-06-23T08:34:56.829Z,21.51
2023-06-23T08:35:56.693Z,21.38
2023-06-23T08:36:56.614Z,21.35
2023-06-23T08:37:56.834Z,21.44
2023-06-23T08:38:56.587Z,21.36
2023-06-23T08:39:56.708Z,21.60
2023-06-23T08:40:56.754Z,21.91
2023-06-23T08:41:57.375Z,21.83
2023-06-23T08:42:58.220Z,21.66
2023-06-23T08:43:57.034Z,21.59
2023-06-23T08:44:56.583Z,21.64
2023-06-23T08:45:56.704Z,21.83
2023-06-23T08:47:56.559Z,21.46
2023-06-23T08:48:56.594Z,21.42
2023-06-23T08:49:56.704Z,21.48
2023-06-23T08:50:56.647Z,21.39
2023-06-23T08:51:56.834Z,21.45
2023-06-23T08:52:57.090Z,21.42
2023-06-23T08:53:56.615Z,21.66
2023-06-23T08:54:56.639Z,21.99
2023-06-23T08:55:56.564Z,22.31
2023-06-23T08:56:56.562Z,22.39
2023-06-23T08:57:56.465Z,22.49
2023-06-23T08:58:56.364Z,22.32
2023-06-23T08:59:56.388Z,22.13
2023-06-23T09:00:56.412Z,22.09
2023-06-23T09:01:56.404Z,22.06
2023-06-23T09:02:56.550Z,22.10
2023-06-23T09:03:56.318Z,22.16
2023-06-23T09:04:57.204Z,22.31
2023-06-23T09:05:56.375Z,22.16
2023-06-23T09:06:56.248Z,22.16
2023-06-23T09:07:56.288Z,22.09
2023-06-23T09:08:56.315Z,22.17
2023-06-23T09:09:56.242Z,22.52
2023-06-23T09:10:56.667Z,22.47
2023-06-23T09:11:56.281Z,22.64
2023-06-23T09:12:56.433Z,22.84
2023-06-23T09:13:56.264Z,22.93
2023-06-23T09:14:56.420Z,22.60
2023-06-23T09:16:02.358Z,22.38
2023-06-23T09:16:56.229Z,22.20
2023-06-23T09:17:56.318Z,22.04
2023-06-23T09:18:56.161Z,21.95
2023-06-23T09:19:56.352Z,21.94
2023-06-23T09:20:56.208Z,21.82
2023-06-23T09:21:56.446Z,21.64
2023-06-23T09:22:56.154Z,21.66
2023-06-23T09:23:56.127Z,22.09
2023-06-23T09:24:56.102Z,22.39
2023-06-23T09:25:58.797Z,22.75
2023-06-23T09:26:56.073Z,23.05
2023-06-23T09:27:56.113Z,22.80
2023-06-23T09:28:56.060Z,22.59
2023-06-23T09:29:56.110Z,22.82
2023-06-23T09:30:56.091Z,22.97
2023-06-23T09:31:57.028Z,23.02
2023-06-23T09:32:56.048Z,23.11
2023-06-23T09:33:55.992Z,23.19
2023-06-23T09:34:56.568Z,23.46
2023-06-23T09:35:56.396Z,23.70
2023-06-23T09:36:55.962Z,23.94
2023-06-23T09:37:55.982Z,24.00
2023-06-23T09:38:55.935Z,24.00
2023-06-23T09:39:55.947Z,24.23
2023-06-23T09:40:55.950Z,24.37
2023-06-23T09:41:56.037Z,24.31
2023-06-23T09:42:55.925Z,24.22
2023-06-23T09:43:55.898Z,24.37
2023-06-23T09:44:55.882Z,24.53
2023-06-23T09:45:55.983Z,24.68
2023-06-23T09:46:55.900Z,24.67
2023-06-23T09:47:55.925Z,24.71
2023-06-23T09:48:55.878Z,24.57
2023-06-23T09:49:55.861Z,24.37
2023-06-23T09:50:55.831Z,24.44
2023-06-23T09:51:56.207Z,24.59
2023-06-23T09:52:55.844Z,24.63
2023-06-23T09:53:55.849Z,24.87
2023-06-23T09:54:55.807Z,24.94
2023-06-23T09:55:55.938Z,25.15
2023-06-23T09:56:55.789Z,25.30
2023-06-23T09:57:55.847Z,25.54
2023-06-23T09:58:55.850Z,25.75
2023-06-23T09:59:55.943Z,25.82
2023-06-23T10:00:55.935Z,26.08
2023-06-23T10:01:55.799Z,26.28
2023-06-23T10:02:55.902Z,25.98
2023-06-23T10:03:55.833Z,26.18
2023-06-23T10:04:55.905Z,26.40
2023-06-23T10:05:55.917Z,26.42
2023-06-23T10:06:55.722Z,26.50
2023-06-23T10:07:55.842Z,26.35
2023-06-23T10:08:56.003Z,25.90
2023-06-23T10:10:11.765Z,25.35
2023-06-23T10:10:55.761Z,24.91
2023-06-23T10:11:55.903Z,24.90
2023-06-23T10:12:55.749Z,24.83
2023-06-23T10:13:55.610Z,24.82
2023-06-23T10:14:55.717Z,24.44
2023-06-23T10:15:55.729Z,24.05
2023-06-23T10:16:55.734Z,23.82
2023-06-23T10:17:55.658Z,24.22
2023-06-23T10:18:55.664Z,24.42
2023-06-23T10:19:55.629Z,24.83
2023-06-23T10:20:55.683Z,25.19
2023-06-23T10:21:55.681Z,25.47
2023-06-23T10:22:55.560Z,25.71
2023-06-23T10:23:55.649Z,25.90
2023-06-23T10:24:55.684Z,26.05
2023-06-23T10:25:55.782Z,26.08
2023-06-23T10:26:55.605Z,26.25
2023-06-23T10:27:55.654Z,26.39
2023-06-23T10:28:55.777Z,26.20
2023-06-23T10:29:55.579Z,26.35
2023-06-23T10:30:55.545Z,26.43
2023-06-23T10:31:55.875Z,26.61
2023-06-23T10:32:55.755Z,26.89
2023-06-23T10:33:55.522Z,26.74
2023-06-23T10:34:55.427Z,26.20
2023-06-23T10:35:55.481Z,25.86
2023-06-23T10:36:55.561Z,26.05
2023-06-23T10:37:55.426Z,25.89
2023-06-23T10:38:55.617Z,25.75
2023-06-23T10:39:55.404Z,25.89
2023-06-23T10:40:55.419Z,26.02
2023-06-23T10:41:56.057Z,26.22
2023-06-23T10:42:55.459Z,26.01
2023-06-23T10:43:55.454Z,26.28
2023-06-23T10:44:55.486Z,26.27
2023-06-23T10:45:55.331Z,26.02
2023-06-23T10:46:55.425Z,25.80
2023-06-23T10:47:55.452Z,25.43
2023-06-23T10:48:55.348Z,25.56
2023-06-23T10:49:55.334Z,25.62
2023-06-23T10:50:55.290Z,25.80
2023-06-23T10:51:55.368Z,26.06
2023-06-23T10:52:55.288Z,26.22
2023-06-23T10:53:55.295Z,26.46
2023-06-23T10:54:55.392Z,26.69
2023-06-23T10:56:08.535Z,26.94
2023-06-23T10:56:55.584Z,27.21
2023-06-23T10:57:55.270Z,27.41
2023-06-23T10:58:55.204Z,27.47
2023-06-23T10:59:55.402Z,27.54
2023-06-23T11:00:55.228Z,27.69
2023-06-23T11:01:56.448Z,27.64
2023-06-23T11:02:55.226Z,27.82
2023-06-23T11:03:55.141Z,27.91
2023-06-23T11:04:55.352Z,27.92
2023-06-23T11:05:55.159Z,27.94
2023-06-23T11:06:55.090Z,27.74
2023-06-23T11:07:55.105Z,27.57
2023-06-23T11:08:55.100Z,27.39
2023-06-23T11:09:55.137Z,27.59
2023-06-23T11:10:55.106Z,27.74
2023-06-23T11:11:55.178Z,27.84
2023-06-23T11:12:55.597Z,27.74
2023-06-23T11:13:55.315Z,27.74
2023-06-23T11:14:55.124Z,27.74
2023-06-23T11:15:55.091Z,27.76
2023-06-23T11:16:55.059Z,27.53
2023-06-23T11:17:55.302Z,27.31
2023-06-23T11:18:55.494Z,27.13
2023-06-23T11:19:55.124Z,27.19
2023-06-23T11:20:55.302Z,27.41
2023-06-23T11:21:55.087Z,27.48
2023-06-23T11:22:55.185Z,27.66
2023-06-23T11:23:55.057Z,27.73
2023-06-23T11:24:55.048Z,27.73
2023-06-23T11:25:55.114Z,27.76
2023-06-23T11:26:55.078Z,27.80
2023-06-23T11:27:55.293Z,27.80
2023-06-23T11:28:55.362Z,27.80
2023-06-23T11:29:55.171Z,27.91
2023-06-23T11:30:55.116Z,27.94
2023-06-23T11:31:54.924Z,27.88
2023-06-23T11:32:54.935Z,27.77
2023-06-23T11:33:55.058Z,26.87
2023-06-23T11:34:54.898Z,26.50
2023-06-23T11:35:55.007Z,26.47
2023-06-23T11:36:54.899Z,26.35
2023-06-23T11:37:54.917Z,26.50
2023-06-23T11:38:54.998Z,26.65
2023-06-23T11:39:54.908Z,26.72
2023-06-23T11:40:54.837Z,26.94
2023-06-23T11:41:54.820Z,27.11
2023-06-23T11:42:54.888Z,27.39
2023-06-23T11:43:54.788Z,27.51
2023-06-23T11:44:54.777Z,27.62
2023-06-23T11:45:55.036Z,27.76
2023-06-23T11:46:54.773Z,27.84
2023-06-23T11:47:54.925Z,27.79
2023-06-23T11:48:54.756Z,27.85
2023-06-23T11:49:54.762Z,27.96
2023-06-23T11:50:54.764Z,28.04
2023-06-23T11:51:54.700Z,27.98
2023-06-23T11:52:54.691Z,28.06
2023-06-23T11:53:54.722Z,28.04
2023-06-23T11:54:54.708Z,27.99
2023-06-23T11:55:54.895Z,27.91
2023-06-23T11:56:54.680Z,27.86
2023-06-23T11:57:54.719Z,27.82
2023-06-23T11:58:54.651Z,27.79
2023-06-23T11:59:54.744Z,27.84
2023-06-23T12:00:54.794Z,27.62
2023-06-23T12:01:54.641Z,27.29
2023-06-23T12:02:54.680Z,27.20
2023-06-23T12:03:54.793Z,27.19
2023-06-23T12:04:54.628Z,27.19
2023-06-23T12:05:54.952Z,27.13
2023-06-23T12:06:54.718Z,26.89
2023-06-23T12:07:54.704Z,26.79
2023-06-23T12:08:54.672Z,26.86
2023-06-23T12:09:54.748Z,26.83
2023-06-23T12:10:54.834Z,26.92
2023-06-23T12:11:54.624Z,26.98
2023-06-23T12:12:54.614Z,27.05
2023-06-23T12:13:54.539Z,27.13
2023-06-23T12:14:54.514Z,27.31
2023-06-23T12:15:58.651Z,27.39
2023-06-23T12:16:54.629Z,27.53
2023-06-23T12:17:54.544Z,27.54
2023-06-23T12:18:54.592Z,27.19
2023-06-23T12:19:54.654Z,27.10
2023-06-23T12:20:54.479Z,26.98
2023-06-23T12:21:54.528Z,26.77
2023-06-23T12:22:54.633Z,26.83
2023-06-23T12:23:54.694Z,26.98
2023-06-23T12:24:54.468Z,27.01
2023-06-23T12:25:54.454Z,27.13
2023-06-23T12:26:54.589Z,27.17
2023-06-23T12:27:54.391Z,27.04
2023-06-23T12:28:54.638Z,26.89
2023-06-23T12:29:54.651Z,26.61
2023-06-23T12:30:54.470Z,26.36
2023-06-23T12:31:54.798Z,26.31
2023-06-23T12:32:54.592Z,26.24
2023-06-23T12:33:54.564Z,26.39
2023-06-23T12:34:54.483Z,26.36
2023-06-23T12:35:54.562Z,26.32
2023-06-23T12:36:54.361Z,26.22
2023-06-23T12:37:54.470Z,26.17
2023-06-23T12:38:54.295Z,26.04
2023-06-23T12:39:54.847Z,26.08
2023-06-23T12:40:54.447Z,26.24
2023-06-23T12:41:54.267Z,26.39
2023-06-23T12:42:54.303Z,26.49
2023-06-23T12:43:54.346Z,26.58
2023-06-23T12:44:54.248Z,26.67
2023-06-23T12:45:54.457Z,26.67
2023-06-23T12:46:54.435Z,26.58
2023-06-23T12:47:54.911Z,26.54
2023-06-23T12:48:54.228Z,26.40
2023-06-23T12:49:54.189Z,26.24
2023-06-23T12:50:54.322Z,26.17
2023-06-23T12:51:54.442Z,25.98
2023-06-23T12:52:54.158Z,25.90